Time;durP1;ratioP1;P1;durP2;ratioP2;P2;SDS_P1;SDS_P2;PMS_P1;PMS_P2;Temp;Humidity;BMP_temperature;BMP_pressure;BME280_temperature;BME280_humidity;BME280_pressure;Samples;Min_cycle;Max_cycle;Signal;HPM_P1;HPM_P2
2023/12/30 00:02:02;;;;;;;1.53;1.43;;;;;;;;;;5031009;28;20756;-83
2023/12/30 00:04:29;;;;;;;1.70;1.60;;;;;;;;;;5041913;28;20202;-83
2023/12/30 00:06:56;;;;;;;3.07;2.00;;;;;;;;;;5036461;28;20356;-83
2023/12/30 00:09:23;;;;;;;5.63;1.90;;;;;;;;;;5046436;28;20222;-82
2023/12/30 00:11:51;;;;;;;2.83;1.50;;;;;;;;;;5050841;28;20716;-83
2023/12/30 00:14:18;;;;;;;2.33;1.97;;;;;;;;;;5038326;28;20215;-82
2023/12/30 00:16:45;;;;;;;1.80;1.60;;;;;;;;;;5043777;28;20230;-83
2023/12/30 00:19:13;;;;;;;5.67;1.60;;;;;;;;;;5051445;28;20222;-82
2023/12/30 00:21:40;;;;;;;4.00;1.90;;;;;;;;;;5039592;28;20226;-83
2023/12/30 00:24:08;;;;;;;1.80;1.70;;;;;;;;;;5031402;28;20209;-83
2023/12/30 00:26:35;;;;;;;1.63;1.40;;;;;;;;;;5031228;28;20238;-81
2023/12/30 00:29:03;;;;;;;1.70;1.60;;;;;;;;;;5034321;28;20227;-82
2023/12/30 00:31:31;;;;;;;1.83;1.70;;;;;;;;;;5034027;28;20292;-82
2023/12/30 00:33:59;;;;;;;1.97;1.87;;;;;;;;;;5033766;28;20210;-84
2023/12/30 00:36:26;;;;;;;2.03;1.87;;;;;;;;;;5030784;28;20238;-84
2023/12/30 00:38:54;;;;;;;2.00;1.67;;;;;;;;;;5044864;28;20222;-84
2023/12/30 00:41:21;;;;;;;2.00;1.90;;;;;;;;;;5050904;28;20234;-85
2023/12/30 00:43:48;;;;;;;1.40;1.30;;;;;;;;;;5051249;28;20268;-85
2023/12/30 00:46:19;;;;;;;3.53;1.93;;;;;;;;;;5050620;28;20609;-84
2023/12/30 00:48:46;;;;;;;1.70;1.60;;;;;;;;;;5050992;28;20234;-85
2023/12/30 00:51:13;;;;;;;1.97;1.87;;;;;;;;;;5050594;28;20740;-84
2023/12/30 00:53:40;;;;;;;1.50;1.40;;;;;;;;;;5054462;28;20210;-84
2023/12/30 00:56:07;;;;;;;1.83;1.30;;;;;;;;;;5052649;28;20658;-85
2023/12/30 00:58:34;;;;;;;1.70;1.60;;;;;;;;;;5034466;28;20759;-84
2023/12/30 01:01:01;;;;;;;4.00;2.30;;;;;;;;;;5034292;28;20284;-85
2023/12/30 01:03:29;;;;;;;1.47;1.37;;;;;;;;;;5052010;28;20205;-84
2023/12/30 01:05:56;;;;;;;1.60;1.50;;;;;;;;;;5054098;28;20238;-84
2023/12/30 01:08:23;;;;;;;1.53;1.50;;;;;;;;;;5054412;28;20276;-85
2023/12/30 01:10:50;;;;;;;1.73;1.63;;;;;;;;;;5053796;28;20800;-84
2023/12/30 01:13:17;;;;;;;1.93;1.80;;;;;;;;;;5054347;28;20415;-84
2023/12/30 01:15:45;;;;;;;1.43;1.33;;;;;;;;;;5043576;28;20579;-85
2023/12/30 01:18:12;;;;;;;3.37;1.93;;;;;;;;;;5034291;28;20256;-85
2023/12/30 01:20:40;;;;;;;1.50;1.50;;;;;;;;;;5033538;28;20840;-85
2023/12/30 01:23:07;;;;;;;2.43;1.87;;;;;;;;;;5034297;28;20211;-84
2023/12/30 01:25:37;;;;;;;2.07;1.97;;;;;;;;;;5033293;28;20685;-84
2023/12/30 01:28:05;;;;;;;2.57;1.37;;;;;;;;;;5045070;28;20214;-84
2023/12/30 01:30:32;;;;;;;2.73;1.90;;;;;;;;;;5053557;28;20277;-85
2023/12/30 01:32:59;;;;;;;1.57;1.47;;;;;;;;;;5054129;28;20206;-84
2023/12/30 01:35:26;;;;;;;1.77;1.63;;;;;;;;;;5052682;28;20234;-84
2023/12/30 01:37:54;;;;;;;3.10;1.70;;;;;;;;;;5034024;28;20202;-85
2023/12/30 01:40:21;;;;;;;1.50;1.40;;;;;;;;;;5033139;28;20227;-84
2023/12/30 01:42:48;;;;;;;1.47;1.37;;;;;;;;;;5033990;28;20260;-84
2023/12/30 01:45:15;;;;;;;3.33;1.70;;;;;;;;;;5033165;28;20747;-85
2023/12/30 01:47:42;;;;;;;1.50;1.50;;;;;;;;;;5033226;28;20230;-85
2023/12/30 01:50:11;;;;;;;2.23;1.50;;;;;;;;;;5032734;28;20218;-84
2023/12/30 01:52:38;;;;;;;2.33;1.67;;;;;;;;;;5045048;28;20198;-85
2023/12/30 01:55:08;;;;;;;4.47;2.13;;;;;;;;;;5052340;28;20244;-85
2023/12/30 01:57:35;;;;;;;1.30;1.30;;;;;;;;;;5052594;28;20205;-85
2023/12/30 02:00:03;;;;;;;3.03;1.40;;;;;;;;;;5050897;28;20288;-84
2023/12/30 02:02:30;;;;;;;2.40;1.50;;;;;;;;;;5051617;28;20648;-85
2023/12/30 02:04:57;;;;;;;1.63;1.50;;;;;;;;;;5051801;28;20206;-85
2023/12/30 02:07:24;;;;;;;4.20;1.50;;;;;;;;;;5050009;28;20242;-85
2023/12/30 02:09:51;;;;;;;1.80;1.33;;;;;;;;;;5051058;28;20597;-85
2023/12/30 02:12:20;;;;;;;2.73;1.37;;;;;;;;;;5036137;28;20257;-85
2023/12/30 02:14:47;;;;;;;1.60;1.50;;;;;;;;;;5032917;28;20362;-85
2023/12/30 02:17:14;;;;;;;1.97;1.83;;;;;;;;;;5032860;28;20368;-84
2023/12/30 02:19:41;;;;;;;1.73;1.47;;;;;;;;;;5033370;28;20353;-84
2023/12/30 02:22:08;;;;;;;3.70;1.80;;;;;;;;;;5032599;28;20975;-84
2023/12/30 02:24:36;;;;;;;1.77;1.63;;;;;;;;;;5036856;28;20236;-84
2023/12/30 02:27:03;;;;;;;1.57;1.30;;;;;;;;;;5048603;28;20223;-84
2023/12/30 02:29:30;;;;;;;1.30;1.30;;;;;;;;;;5032473;28;20311;-85
2023/12/30 02:31:57;;;;;;;1.87;1.53;;;;;;;;;;5032311;28;20241;-84
2023/12/30 02:34:24;;;;;;;1.50;1.40;;;;;;;;;;5032413;28;20264;-84
2023/12/30 02:36:51;;;;;;;3.00;1.90;;;;;;;;;;5043187;28;20283;-84
2023/12/30 02:39:18;;;;;;;1.70;1.60;;;;;;;;;;5050668;28;20226;-84
2023/12/30 02:41:47;;;;;;;1.50;1.40;;;;;;;;;;5038683;28;20693;-84
2023/12/30 02:44:18;;;;;;;1.80;1.70;;;;;;;;;;5034192;28;20207;-85
2023/12/30 02:46:45;;;;;;;1.73;1.63;;;;;;;;;;5032148;28;20235;-84
2023/12/30 02:49:11;;;;;;;4.50;1.50;;;;;;;;;;5032533;28;20234;-84
2023/12/30 02:51:38;;;;;;;3.23;1.57;;;;;;;;;;5032042;28;20257;-84
2023/12/30 02:54:06;;;;;;;4.93;1.43;;;;;;;;;;5032337;28;20297;-84
2023/12/30 02:56:33;;;;;;;2.97;1.70;;;;;;;;;;5031895;28;20334;-84
2023/12/30 02:59:02;;;;;;;4.30;1.77;;;;;;;;;;5032446;28;20222;-85
2023/12/30 03:01:29;;;;;;;1.87;1.77;;;;;;;;;;5031600;28;20676;-84
2023/12/30 03:03:57;;;;;;;1.80;1.50;;;;;;;;;;5032111;28;20824;-82
2023/12/30 03:06:24;;;;;;;1.70;1.60;;;;;;;;;;5031791;28;20234;-84
2023/12/30 03:08:52;;;;;;;3.63;1.70;;;;;;;;;;5031929;28;20633;-83
2023/12/30 03:11:19;;;;;;;3.00;1.80;;;;;;;;;;5031662;28;20317;-84
2023/12/30 03:13:46;;;;;;;1.87;1.57;;;;;;;;;;5032025;28;20210;-84
2023/12/30 03:16:14;;;;;;;1.60;1.50;;;;;;;;;;5031520;28;20704;-83
2023/12/30 03:18:42;;;;;;;3.23;1.60;;;;;;;;;;5032124;28;20198;-84
2023/12/30 03:21:09;;;;;;;1.87;1.70;;;;;;;;;;5038733;28;20769;-84
2023/12/30 03:23:37;;;;;;;2.13;1.93;;;;;;;;;;5047382;28;20207;-84
2023/12/30 03:26:04;;;;;;;2.00;1.90;;;;;;;;;;5031532;28;20234;-84
2023/12/30 03:28:31;;;;;;;4.20;1.83;;;;;;;;;;5031696;28;20235;-84
2023/12/30 03:30:58;;;;;;;4.80;2.50;;;;;;;;;;5031448;28;20276;-84
2023/12/30 03:33:26;;;;;;;4.30;1.70;;;;;;;;;;5045210;28;20625;-84
2023/12/30 03:35:53;;;;;;;1.80;1.70;;;;;;;;;;5050517;28;20291;-84
2023/12/30 03:38:20;;;;;;;1.53;1.50;;;;;;;;;;5047797;28;20195;-84
2023/12/30 03:40:47;;;;;;;1.70;1.60;;;;;;;;;;5031101;28;20234;-83
2023/12/30 03:43:15;;;;;;;1.50;1.50;;;;;;;;;;5035609;28;20215;-84
2023/12/30 03:45:42;;;;;;;3.23;1.80;;;;;;;;;;5045948;28;20236;-84
2023/12/30 03:48:09;;;;;;;1.70;1.60;;;;;;;;;;5051598;28;20234;-84
2023/12/30 03:50:37;;;;;;;2.43;1.70;;;;;;;;;;5036696;28;20247;-84
2023/12/30 03:53:05;;;;;;;1.77;1.67;;;;;;;;;;5031713;28;20215;-84
2023/12/30 03:55:32;;;;;;;2.20;1.50;;;;;;;;;;5030702;28;20313;-84
2023/12/30 03:57:59;;;;;;;4.63;1.77;;;;;;;;;;5031600;28;20210;-84
2023/12/30 04:00:26;;;;;;;1.70;1.60;;;;;;;;;;5031156;28;20292;-83
2023/12/30 04:02:53;;;;;;;1.80;1.67;;;;;;;;;;5031400;28;20219;-83
2023/12/30 04:05:20;;;;;;;2.50;1.50;;;;;;;;;;5030700;28;20207;-83
2023/12/30 04:07:48;;;;;;;1.53;1.43;;;;;;;;;;5031668;28;20230;-83
2023/12/30 04:10:17;;;;;;;1.77;1.67;;;;;;;;;;5030755;28;20245;-84
2023/12/30 04:12:44;;;;;;;1.70;1.60;;;;;;;;;;5031370;28;20210;-83
2023/12/30 04:15:11;;;;;;;2.10;1.70;;;;;;;;;;5030465;28;20215;-83
2023/12/30 04:17:38;;;;;;;1.93;1.73;;;;;;;;;;5031414;28;20268;-83
2023/12/30 04:20:06;;;;;;;1.70;1.60;;;;;;;;;;5030611;28;20230;-84
2023/12/30 04:22:33;;;;;;;5.63;2.63;;;;;;;;;;5031075;28;20222;-82
2023/12/30 04:25:02;;;;;;;3.40;1.90;;;;;;;;;;5031220;28;20268;-84
2023/12/30 04:27:29;;;;;;;4.40;1.70;;;;;;;;;;5032881;28;20284;-82
2023/12/30 04:29:56;;;;;;;2.53;2.40;;;;;;;;;;5034670;28;20231;-82
2023/12/30 04:32:24;;;;;;;1.60;1.50;;;;;;;;;;5034439;28;20238;-83
2023/12/30 04:34:51;;;;;;;1.60;1.50;;;;;;;;;;5034839;28;20206;-82
2023/12/30 04:37:18;;;;;;;2.97;1.83;;;;;;;;;;5034449;28;20295;-82
2023/12/30 04:39:45;;;;;;;2.40;2.00;;;;;;;;;;5034753;28;20219;-84
2023/12/30 04:42:15;;;;;;;1.77;1.67;;;;;;;;;;5034396;28;20648;-83
2023/12/30 04:44:42;;;;;;;5.10;1.93;;;;;;;;;;5034850;28;20218;-83
2023/12/30 04:47:09;;;;;;;3.03;2.07;;;;;;;;;;5041041;28;20229;-83
2023/12/30 04:49:36;;;;;;;7.23;1.77;;;;;;;;;;5054679;28;20281;-83
2023/12/30 04:52:03;;;;;;;5.07;1.90;;;;;;;;;;5054030;28;20723;-83
2023/12/30 04:54:31;;;;;;;2.93;1.80;;;;;;;;;;5054656;28;20221;-82
2023/12/30 04:56:58;;;;;;;4.60;2.50;;;;;;;;;;5044245;28;20313;-82
2023/12/30 04:59:27;;;;;;;3.07;1.97;;;;;;;;;;5034335;28;20593;-82
2023/12/30 05:01:54;;;;;;;4.47;2.10;;;;;;;;;;5034371;28;20651;-80
2023/12/30 05:04:21;;;;;;;5.00;1.97;;;;;;;;;;5037082;28;20890;-82
2023/12/30 05:06:48;;;;;;;2.07;1.97;;;;;;;;;;5036518;28;20325;-82
2023/12/30 05:09:15;;;;;;;3.23;1.77;;;;;;;;;;5035123;28;20231;-83
2023/12/30 05:11:45;;;;;;;1.53;1.40;;;;;;;;;;5051409;28;20743;-82
2023/12/30 05:14:12;;;;;;;2.00;1.90;;;;;;;;;;5053957;28;20214;-82
2023/12/30 05:16:45;;;;;;;2.30;1.90;;;;;;;;;;5053417;28;20253;-82
2023/12/30 05:19:12;;;;;;;4.70;2.60;;;;;;;;;;5054121;28;20721;-82
2023/12/30 05:21:40;;;;;;;3.70;1.87;;;;;;;;;;5053274;28;20288;-81
2023/12/30 05:24:07;;;;;;;2.30;1.90;;;;;;;;;;5053684;28;20205;-81
2023/12/30 05:26:34;;;;;;;2.87;2.10;;;;;;;;;;5053301;28;20808;-81
2023/12/30 05:29:01;;;;;;;5.20;1.87;;;;;;;;;;5053487;28;20230;-81
2023/12/30 05:31:28;;;;;;;4.73;2.10;;;;;;;;;;5053342;28;20264;-82
2023/12/30 05:33:56;;;;;;;5.03;2.30;;;;;;;;;;5053521;28;20602;-82
2023/12/30 05:36:23;;;;;;;2.03;1.90;;;;;;;;;;5053510;28;20237;-82
2023/12/30 05:38:50;;;;;;;3.17;2.10;;;;;;;;;;5052387;28;20221;-82
2023/12/30 05:41:17;;;;;;;2.13;1.93;;;;;;;;;;5053275;28;20233;-82
2023/12/30 05:43:44;;;;;;;3.40;2.00;;;;;;;;;;5053703;28;20263;-82
2023/12/30 05:46:16;;;;;;;3.13;2.40;;;;;;;;;;5053139;28;20234;-82
2023/12/30 05:48:43;;;;;;;2.37;2.17;;;;;;;;;;5053684;28;20301;-82
2023/12/30 05:51:11;;;;;;;3.50;1.60;;;;;;;;;;5053053;28;20741;-82
2023/12/30 05:53:40;;;;;;;2.43;2.23;;;;;;;;;;5053391;28;20210;-83
2023/12/30 05:56:07;;;;;;;3.47;2.10;;;;;;;;;;5053067;28;20614;-82
2023/12/30 05:58:35;;;;;;;3.03;2.20;;;;;;;;;;5053167;28;20202;-82
2023/12/30 06:01:02;;;;;;;2.67;1.83;;;;;;;;;;5052834;28;20234;-82
2023/12/30 06:03:29;;;;;;;6.20;1.80;;;;;;;;;;5053254;28;20242;-82
2023/12/30 06:05:56;;;;;;;2.20;2.00;;;;;;;;;;5053050;28;20264;-83
2023/12/30 06:08:25;;;;;;;2.80;2.07;;;;;;;;;;5053277;28;20236;-83
2023/12/30 06:10:53;;;;;;;3.27;2.00;;;;;;;;;;5052682;28;20245;-80
2023/12/30 06:13:21;;;;;;;2.47;2.17;;;;;;;;;;5052910;28;20627;-80
2023/12/30 06:15:51;;;;;;;1.83;1.70;;;;;;;;;;5049411;28;20316;-80
2023/12/30 06:18:19;;;;;;;3.60;2.23;;;;;;;;;;5040790;28;20202;-80
2023/12/30 06:20:47;;;;;;;2.50;1.80;;;;;;;;;;5037283;28;20226;-80
2023/12/30 06:23:14;;;;;;;4.97;1.90;;;;;;;;;;5047245;28;20198;-80
2023/12/30 06:25:43;;;;;;;4.67;2.03;;;;;;;;;;5032085;28;20246;-79
2023/12/30 06:28:10;;;;;;;4.40;2.57;;;;;;;;;;5032814;28;20218;-79
2023/12/30 06:30:38;;;;;;;2.20;1.73;;;;;;;;;;5035621;28;20237;-80
2023/12/30 06:33:06;;;;;;;1.80;1.70;;;;;;;;;;5052356;28;20543;-79
2023/12/30 06:35:34;;;;;;;3.20;2.10;;;;;;;;;;5045979;28;20321;-80
2023/12/30 06:38:02;;;;;;;2.13;2.00;;;;;;;;;;5032531;28;20677;-81
2023/12/30 06:40:29;;;;;;;4.30;2.37;;;;;;;;;;5032062;28;20596;-80
2023/12/30 06:42:57;;;;;;;3.23;2.17;;;;;;;;;;5051412;28;20604;-80
2023/12/30 06:45:24;;;;;;;2.10;1.90;;;;;;;;;;5049965;28;20693;-78
2023/12/30 06:47:51;;;;;;;2.67;1.73;;;;;;;;;;5052218;28;20213;-79
2023/12/30 06:50:20;;;;;;;2.20;2.00;;;;;;;;;;5051388;28;20230;-78
2023/12/30 06:52:47;;;;;;;7.33;2.50;;;;;;;;;;5051885;28;20206;-78
2023/12/30 06:55:14;;;;;;;4.20;2.00;;;;;;;;;;5051508;28;20249;-79
2023/12/30 06:57:42;;;;;;;4.43;2.20;;;;;;;;;;5051877;28;20213;-78
2023/12/30 07:00:10;;;;;;;2.83;1.90;;;;;;;;;;5051405;28;20222;-78
2023/12/30 07:02:37;;;;;;;1.70;1.60;;;;;;;;;;5051974;28;20206;-77
2023/12/30 07:05:05;;;;;;;2.07;1.70;;;;;;;;;;5051207;28;20221;-79
2023/12/30 07:07:32;;;;;;;4.00;2.00;;;;;;;;;;5052063;28;20214;-79
2023/12/30 07:09:59;;;;;;;2.20;1.97;;;;;;;;;;5051742;28;20642;-78
2023/12/30 07:12:26;;;;;;;3.33;1.90;;;;;;;;;;5051513;28;20266;-79
2023/12/30 07:14:53;;;;;;;4.00;1.67;;;;;;;;;;5051256;28;20638;-79
2023/12/30 07:17:21;;;;;;;2.13;1.47;;;;;;;;;;5051107;28;20937;-79
2023/12/30 07:19:48;;;;;;;2.17;1.97;;;;;;;;;;5048817;28;20284;-79
2023/12/30 07:22:19;;;;;;;4.33;2.13;;;;;;;;;;5042301;28;20709;-78
2023/12/30 07:24:46;;;;;;;1.73;1.63;;;;;;;;;;5033034;28;20199;-78
2023/12/30 07:27:14;;;;;;;2.70;2.13;;;;;;;;;;5041738;28;20234;-78
2023/12/30 07:29:41;;;;;;;3.53;2.33;;;;;;;;;;5031470;28;20235;-78
2023/12/30 07:32:08;;;;;;;1.90;1.80;;;;;;;;;;5047581;28;20233;-79
2023/12/30 07:34:36;;;;;;;5.40;2.13;;;;;;;;;;5045670;28;20199;-80
2023/12/30 07:37:04;;;;;;;2.83;2.30;;;;;;;;;;5038721;28;20233;-80
2023/12/30 07:39:33;;;;;;;5.27;2.10;;;;;;;;;;5031332;28;20230;-80
2023/12/30 07:42:00;;;;;;;10.57;2.77;;;;;;;;;;5050353;28;20237;-81
2023/12/30 07:44:28;;;;;;;6.60;2.57;;;;;;;;;;5051162;28;20296;-81
2023/12/30 07:46:55;;;;;;;3.93;2.73;;;;;;;;;;5050801;28;20316;-81
2023/12/30 07:49:22;;;;;;;5.30;2.67;;;;;;;;;;5037799;28;20751;-81
2023/12/30 07:51:51;;;;;;;1.90;1.60;;;;;;;;;;5030947;28;20304;-81
2023/12/30 07:54:18;;;;;;;4.53;2.40;;;;;;;;;;5047902;28;20210;-80
2023/12/30 07:56:45;;;;;;;2.70;1.90;;;;;;;;;;5050875;28;20237;-79
2023/12/30 07:59:13;;;;;;;4.67;2.20;;;;;;;;;;5051010;28;20226;-79
2023/12/30 08:01:42;;;;;;;6.17;2.23;;;;;;;;;;5051681;28;20236;-79
2023/12/30 08:04:09;;;;;;;5.23;2.17;;;;;;;;;;5055161;28;20705;-79
2023/12/30 08:06:37;;;;;;;7.00;2.40;;;;;;;;;;5054937;28;20283;-79
2023/12/30 08:09:05;;;;;;;5.73;2.30;;;;;;;;;;5055024;28;20585;-79
2023/12/30 08:11:32;;;;;;;8.63;2.90;;;;;;;;;;5054666;28;20650;-80
2023/12/30 08:13:59;;;;;;;3.17;2.87;;;;;;;;;;5054752;28;20214;-80
2023/12/30 08:16:26;;;;;;;2.30;2.20;;;;;;;;;;5054684;28;20606;-81
2023/12/30 08:18:53;;;;;;;7.47;2.70;;;;;;;;;;5054593;28;20283;-80
2023/12/30 08:21:20;;;;;;;2.83;2.57;;;;;;;;;;5054592;28;20242;-80
2023/12/30 08:23:47;;;;;;;6.20;2.87;;;;;;;;;;5054705;28;20252;-79
2023/12/30 08:26:16;;;;;;;4.97;2.50;;;;;;;;;;5054403;28;20237;-79
2023/12/30 08:28:45;;;;;;;3.33;2.30;;;;;;;;;;5054639;28;20279;-80
2023/12/30 08:31:12;;;;;;;2.27;2.07;;;;;;;;;;5053814;28;20654;-80
2023/12/30 08:33:39;;;;;;;3.13;2.30;;;;;;;;;;5054713;28;20688;-79
2023/12/30 08:36:06;;;;;;;5.57;2.10;;;;;;;;;;5047817;28;20240;-79
2023/12/30 08:38:34;;;;;;;7.27;2.63;;;;;;;;;;5034649;28;20260;-80
2023/12/30 08:41:02;;;;;;;3.03;2.13;;;;;;;;;;5034250;28;20292;-80
2023/12/30 08:43:30;;;;;;;4.27;1.80;;;;;;;;;;5034654;28;20268;-80
2023/12/30 08:45:57;;;;;;;5.40;2.70;;;;;;;;;;5033985;28;20242;-80
2023/12/30 08:48:24;;;;;;;2.30;2.10;;;;;;;;;;5034509;28;20686;-79
2023/12/30 08:50:51;;;;;;;8.07;2.37;;;;;;;;;;5033923;28;20234;-80
2023/12/30 08:53:24;;;;;;;7.37;2.80;;;;;;;;;;5043099;28;20252;-80
2023/12/30 08:55:51;;;;;;;3.23;2.50;;;;;;;;;;5053545;28;20774;-80
2023/12/30 08:58:18;;;;;;;12.40;2.50;;;;;;;;;;5054073;28;20229;-80
2023/12/30 09:00:47;;;;;;;5.03;2.50;;;;;;;;;;5053800;28;20291;-80
2023/12/30 09:03:14;;;;;;;9.00;2.90;;;;;;;;;;5054344;28;20214;-80
2023/12/30 09:05:41;;;;;;;5.17;2.30;;;;;;;;;;5048381;28;20291;-80
2023/12/30 09:08:08;;;;;;;4.23;2.97;;;;;;;;;;5053679;28;20206;-80
2023/12/30 09:10:35;;;;;;;2.90;2.43;;;;;;;;;;5053325;28;20241;-80
2023/12/30 09:13:02;;;;;;;1.90;1.80;;;;;;;;;;5053522;28;20210;-80
2023/12/30 09:15:29;;;;;;;2.97;2.70;;;;;;;;;;5053280;28;20237;-80
2023/12/30 09:17:58;;;;;;;3.07;2.73;;;;;;;;;;5054030;28;20218;-80
2023/12/30 09:20:25;;;;;;;2.30;2.20;;;;;;;;;;5053312;28;20262;-79
2023/12/30 09:22:53;;;;;;;2.60;2.40;;;;;;;;;;5046835;28;20712;-79
2023/12/30 09:25:20;;;;;;;3.43;2.60;;;;;;;;;;5053191;28;20210;-80
2023/12/30 09:27:47;;;;;;;2.47;2.27;;;;;;;;;;5053006;28;20588;-79
2023/12/30 09:30:14;;;;;;;2.47;2.10;;;;;;;;;;5052482;28;20229;-79
2023/12/30 09:32:41;;;;;;;5.77;2.50;;;;;;;;;;5053210;28;20221;-79
2023/12/30 09:35:10;;;;;;;2.97;2.10;;;;;;;;;;5052481;28;20355;-79
2023/12/30 09:37:37;;;;;;;4.07;3.17;;;;;;;;;;5053306;28;20630;-79
2023/12/30 09:40:04;;;;;;;4.87;2.47;;;;;;;;;;5052401;28;20226;-78
2023/12/30 09:42:32;;;;;;;6.40;2.60;;;;;;;;;;5054162;28;20210;-78
2023/12/30 09:45:00;;;;;;;4.93;1.90;;;;;;;;;;5054696;28;20206;-79
2023/12/30 09:47:29;;;;;;;3.00;2.13;;;;;;;;;;5053652;28;20258;-80
2023/12/30 09:49:56;;;;;;;2.40;2.20;;;;;;;;;;5052648;28;20266;-81
2023/12/30 09:52:25;;;;;;;2.83;1.90;;;;;;;;;;5051018;28;20245;-79
2023/12/30 09:54:52;;;;;;;2.37;1.87;;;;;;;;;;5050978;28;20202;-79
2023/12/30 09:57:19;;;;;;;3.07;2.20;;;;;;;;;;5051088;28;20225;-79
2023/12/30 09:59:47;;;;;;;4.80;2.03;;;;;;;;;;5050803;28;20229;-81
2023/12/30 10:02:14;;;;;;;6.83;2.30;;;;;;;;;;5044152;28;20229;-80
2023/12/30 10:04:41;;;;;;;1.73;1.63;;;;;;;;;;5051863;28;20206;-80
2023/12/30 10:07:10;;;;;;;3.40;1.97;;;;;;;;;;5049782;28;20225;-80
2023/12/30 10:09:39;;;;;;;2.80;2.00;;;;;;;;;;5050486;28;20886;-79
2023/12/30 10:12:07;;;;;;;3.60;2.07;;;;;;;;;;5050257;28;20237;-80
2023/12/30 10:14:34;;;;;;;2.70;2.40;;;;;;;;;;5050532;28;20249;-80
2023/12/30 10:17:03;;;;;;;6.20;2.60;;;;;;;;;;5049962;28;20299;-80
2023/12/30 10:19:30;;;;;;;4.33;1.93;;;;;;;;;;5050543;28;20229;-80
2023/12/30 10:21:57;;;;;;;3.17;2.17;;;;;;;;;;5051980;28;20317;-80
2023/12/30 10:24:25;;;;;;;1.93;1.83;;;;;;;;;;5051912;28;20203;-80
2023/12/30 10:26:54;;;;;;;6.50;3.00;;;;;;;;;;5052141;28;20260;-80
2023/12/30 10:29:21;;;;;;;4.63;2.20;;;;;;;;;;5052629;28;20299;-80
2023/12/30 10:31:59;;;;;;;8.00;2.30;;;;;;;;;;5052257;28;20364;-80
2023/12/30 10:34:27;;;;;;;7.50;2.27;;;;;;;;;;5052380;28;20289;-80
2023/12/30 10:36:54;;;;;;;4.07;2.77;;;;;;;;;;5051790;28;20236;-81
2023/12/30 10:39:23;;;;;;;6.00;2.43;;;;;;;;;;5052063;28;20625;-80
2023/12/30 10:41:50;;;;;;;2.27;1.87;;;;;;;;;;5051826;28;20233;-80
2023/12/30 10:44:19;;;;;;;2.23;1.93;;;;;;;;;;5052200;28;20701;-80
2023/12/30 10:46:48;;;;;;;3.03;1.90;;;;;;;;;;5051777;28;20230;-80
2023/12/30 10:49:17;;;;;;;2.77;1.93;;;;;;;;;;5043877;28;20280;-80
2023/12/30 10:51:45;;;;;;;5.00;1.80;;;;;;;;;;5051641;28;20233;-80
2023/12/30 10:54:14;;;;;;;1.87;1.77;;;;;;;;;;5051919;28;20293;-80
2023/12/30 10:56:45;;;;;;;4.93;2.10;;;;;;;;;;5051616;28;20249;-80
2023/12/30 10:59:13;;;;;;;3.03;1.87;;;;;;;;;;5051785;28;20266;-81
2023/12/30 11:01:42;;;;;;;4.03;2.00;;;;;;;;;;5051632;28;20230;-80
2023/12/30 11:04:11;;;;;;;6.77;2.10;;;;;;;;;;5051712;28;20256;-80
2023/12/30 11:06:42;;;;;;;2.73;2.10;;;;;;;;;;5051568;28;20747;-80
2023/12/30 11:09:11;;;;;;;2.87;1.80;;;;;;;;;;5051629;28;20229;-80
2023/12/30 11:11:40;;;;;;;2.13;1.93;;;;;;;;;;5051433;28;20237;-81
2023/12/30 11:14:12;;;;;;;2.10;1.90;;;;;;;;;;5051529;28;20693;-80
2023/12/30 11:16:40;;;;;;;2.83;1.60;;;;;;;;;;5051643;28;20300;-81
2023/12/30 11:19:08;;;;;;;4.43;1.83;;;;;;;;;;5051530;28;20692;-80
2023/12/30 11:21:38;;;;;;;7.53;2.20;;;;;;;;;;5051447;28;20226;-80
2023/12/30 11:24:07;;;;;;;3.10;2.47;;;;;;;;;;5051424;28;20774;-80
2023/12/30 11:26:35;;;;;;;3.80;1.70;;;;;;;;;;5051132;28;20236;-80
2023/12/30 11:29:03;;;;;;;4.70;1.90;;;;;;;;;;5051332;28;20222;-80
2023/12/30 11:31:34;;;;;;;1.47;1.37;;;;;;;;;;5051048;28;20234;-80
2023/12/30 11:34:01;;;;;;;4.23;2.07;;;;;;;;;;5051375;28;20210;-80
2023/12/30 11:36:30;;;;;;;3.43;2.13;;;;;;;;;;5050268;28;20232;-80
2023/12/30 11:38:58;;;;;;;2.03;1.87;;;;;;;;;;5051084;28;20708;-80
2023/12/30 11:41:25;;;;;;;2.30;2.00;;;;;;;;;;5051027;28;20236;-79
2023/12/30 11:43:52;;;;;;;3.83;2.17;;;;;;;;;;5051229;28;20267;-79
2023/12/30 11:46:19;;;;;;;4.07;1.73;;;;;;;;;;5042763;28;20244;-80
2023/12/30 11:48:46;;;;;;;4.53;2.00;;;;;;;;;;5051180;28;20742;-80
2023/12/30 11:51:20;;;;;;;2.03;1.93;;;;;;;;;;5050619;28;20237;-80
2023/12/30 11:53:48;;;;;;;2.87;1.80;;;;;;;;;;5051298;28;20206;-80
2023/12/30 11:56:16;;;;;;;2.70;2.27;;;;;;;;;;5050649;28;20333;-80
2023/12/30 11:58:43;;;;;;;4.73;2.23;;;;;;;;;;5051219;28;20304;-79
2023/12/30 12:01:10;;;;;;;2.07;1.90;;;;;;;;;;5050652;28;20283;-79
2023/12/30 12:03:37;;;;;;;2.77;1.73;;;;;;;;;;5051104;28;20210;-79
2023/12/30 12:06:04;;;;;;;3.90;2.00;;;;;;;;;;5050517;28;20688;-79
2023/12/30 12:08:31;;;;;;;4.00;2.10;;;;;;;;;;5050971;28;20213;-79
2023/12/30 12:11:00;;;;;;;3.37;2.13;;;;;;;;;;5050524;28;20299;-79
2023/12/30 12:13:27;;;;;;;1.40;1.40;;;;;;;;;;5051232;28;20268;-79
2023/12/30 12:15:55;;;;;;;3.57;2.00;;;;;;;;;;5050442;28;20256;-79
2023/12/30 12:18:22;;;;;;;3.33;2.37;;;;;;;;;;5050830;28;20206;-79
2023/12/30 12:20:50;;;;;;;3.00;1.93;;;;;;;;;;5050682;28;20237;-79
2023/12/30 12:23:17;;;;;;;2.73;2.00;;;;;;;;;;5050891;28;20252;-79
2023/12/30 12:25:44;;;;;;;2.10;1.77;;;;;;;;;;5050402;28;20229;-79
2023/12/30 12:28:14;;;;;;;5.27;1.63;;;;;;;;;;5050819;28;20206;-79
2023/12/30 12:30:42;;;;;;;1.80;1.70;;;;;;;;;;5050534;28;20288;-80
2023/12/30 12:33:09;;;;;;;2.17;1.80;;;;;;;;;;5051075;28;20206;-79
2023/12/30 12:35:36;;;;;;;3.60;1.87;;;;;;;;;;5050537;28;20240;-79
2023/12/30 12:38:03;;;;;;;3.70;1.93;;;;;;;;;;5050602;28;20209;-79
2023/12/30 12:40:32;;;;;;;2.30;2.10;;;;;;;;;;5050253;28;20246;-80
2023/12/30 12:42:59;;;;;;;6.87;1.97;;;;;;;;;;5050719;28;20210;-79
2023/12/30 12:45:27;;;;;;;4.23;2.20;;;;;;;;;;5050002;28;20604;-79
2023/12/30 12:47:54;;;;;;;2.90;2.00;;;;;;;;;;5051909;28;20210;-79
2023/12/30 12:50:21;;;;;;;4.03;1.80;;;;;;;;;;5053822;28;20229;-79
2023/12/30 12:52:48;;;;;;;4.03;1.93;;;;;;;;;;5054437;28;20210;-79
2023/12/30 12:55:16;;;;;;;1.73;1.50;;;;;;;;;;5053445;28;20272;-79
2023/12/30 12:57:43;;;;;;;3.03;1.90;;;;;;;;;;5054292;28;20206;-79
2023/12/30 13:00:11;;;;;;;4.93;1.97;;;;;;;;;;5053493;28;20237;-79
2023/12/30 13:02:39;;;;;;;4.30;2.07;;;;;;;;;;5054134;28;20243;-79
2023/12/30 13:05:09;;;;;;;1.93;1.80;;;;;;;;;;5053246;28;20205;-79
2023/12/30 13:07:38;;;;;;;1.97;1.77;;;;;;;;;;5053946;28;20297;-79
2023/12/30 13:10:27;;;;;;;7.87;2.43;;;;;;;;;;5053071;28;20308;-79
2023/12/30 13:12:54;;;;;;;2.43;2.23;;;;;;;;;;5054191;28;20210;-79
2023/12/30 13:15:24;;;;;;;6.70;2.00;;;;;;;;;;5053023;28;20272;-79
2023/12/30 13:17:53;;;;;;;2.53;1.73;;;;;;;;;;5053927;28;20202;-79
2023/12/30 13:20:20;;;;;;;2.40;1.80;;;;;;;;;;5053033;28;20225;-79
2023/12/30 13:22:55;;;;;;;4.97;1.77;;;;;;;;;;5053788;28;20248;-79
2023/12/30 13:25:22;;;;;;;5.70;1.93;;;;;;;;;;5052861;28;20205;-79
2023/12/30 13:27:49;;;;;;;3.70;1.40;;;;;;;;;;5053855;28;20236;-79
2023/12/30 13:30:18;;;;;;;1.77;1.60;;;;;;;;;;5052743;28;20226;-79
2023/12/30 13:32:45;;;;;;;4.93;2.03;;;;;;;;;;5053654;28;20206;-79
2023/12/30 13:35:13;;;;;;;2.33;1.70;;;;;;;;;;5052828;28;20206;-79
2023/12/30 13:37:42;;;;;;;3.77;1.60;;;;;;;;;;5053648;28;20272;-79
2023/12/30 13:40:13;;;;;;;1.70;1.60;;;;;;;;;;5052566;28;20639;-79
2023/12/30 13:42:40;;;;;;;1.80;1.70;;;;;;;;;;5053608;28;20577;-79
2023/12/30 13:45:10;;;;;;;5.33;2.03;;;;;;;;;;5052690;28;20718;-79
2023/12/30 13:47:52;;;;;;;5.53;1.90;;;;;;;;;;5053367;28;20206;-79
2023/12/30 13:50:29;;;;;;;2.57;1.50;;;;;;;;;;5052450;28;20236;-79
2023/12/30 13:53:00;;;;;;;3.03;1.53;;;;;;;;;;5053271;28;20201;-80
2023/12/30 13:55:28;;;;;;;2.13;1.87;;;;;;;;;;5044789;28;20240;-80
2023/12/30 13:57:55;;;;;;;3.17;2.10;;;;;;;;;;5053510;28;20214;-80
2023/12/30 14:00:23;;;;;;;2.60;1.93;;;;;;;;;;5051593;28;20312;-80
2023/12/30 14:02:50;;;;;;;3.57;1.90;;;;;;;;;;5053067;28;20290;-79
2023/12/30 14:05:22;;;;;;;3.30;2.10;;;;;;;;;;5052351;28;20244;-79
2023/12/30 14:07:51;;;;;;;7.70;1.60;;;;;;;;;;5053067;28;20287;-80
2023/12/30 14:10:18;;;;;;;7.00;2.30;;;;;;;;;;5052190;28;20226;-79
2023/12/30 14:12:47;;;;;;;2.73;1.80;;;;;;;;;;5052806;28;20665;-79
2023/12/30 14:15:17;;;;;;;3.50;1.90;;;;;;;;;;5052052;28;20253;-79
2023/12/30 14:17:45;;;;;;;3.00;2.10;;;;;;;;;;5052914;28;20214;-79
2023/12/30 14:20:13;;;;;;;2.40;1.80;;;;;;;;;;5052016;28;20291;-79
2023/12/30 14:22:41;;;;;;;2.57;2.27;;;;;;;;;;5050625;28;20194;-79
2023/12/30 14:28:12;;;;;;;6.07;2.13;;;;;;;;;;5047643;28;20192;-79
2023/12/30 14:30:39;;;;;;;1.60;1.50;;;;;;;;;;5051780;28;20237;-79
2023/12/30 14:33:07;;;;;;;2.93;1.80;;;;;;;;;;5050893;28;20232;-78
2023/12/30 14:35:34;;;;;;;2.40;1.80;;;;;;;;;;5051664;28;20237;-78
2023/12/30 14:38:04;;;;;;;3.00;1.63;;;;;;;;;;5052204;28;20205;-78
2023/12/30 14:40:31;;;;;;;2.00;1.70;;;;;;;;;;5051647;28;20284;-79
2023/12/30 14:42:58;;;;;;;1.97;1.70;;;;;;;;;;5052253;28;20205;-78
2023/12/30 14:45:26;;;;;;;4.03;2.07;;;;;;;;;;5051152;28;20276;-78
2023/12/30 14:47:53;;;;;;;4.33;2.80;;;;;;;;;;5047005;28;20623;-78
2023/12/30 14:50:20;;;;;;;3.07;2.10;;;;;;;;;;5051376;28;20306;-78